Time;durP1;ratioP1;P1;durP2;ratioP2;P2;SDS_P1;SDS_P2;PMS_P1;PMS_P2;Temp;Humidity;BMP_temperature;BMP_pressure;BME280_temperature;BME280_humidity;BME280_pressure;Samples;Min_cycle;Max_cycle;Signal;HPM_P1;HPM_P2
2023/05/14 00:00:39;;;;;;;2.10;2.00;;;19.70;64.10;;;;;;4951516;28;20113;-53
2023/05/14 00:03:04;;;;;;;2.03;1.80;;;19.70;64.20;;;;;;4956458;28;20153;-51
2023/05/14 00:05:30;;;;;;;1.75;1.65;;;19.70;64.20;;;;;;4960043;28;20444;-53
2023/05/14 00:07:55;;;;;;;1.80;1.70;;;19.70;64.20;;;;;;4956736;28;20370;-56
2023/05/14 00:10:21;;;;;;;2.13;1.77;;;19.70;64.20;;;;;;4957915;28;20058;-51
2023/05/14 00:12:47;;;;;;;1.70;1.60;;;19.70;64.10;;;;;;4955608;28;20560;-49
2023/05/14 00:15:12;;;;;;;2.63;1.50;;;19.70;64.10;;;;;;4955697;28;20031;-53
2023/05/14 00:17:38;;;;;;;2.13;1.98;;;19.70;64.20;;;;;;4954338;28;20039;-56
2023/05/14 00:20:06;;;;;;;1.98;1.77;;;19.70;64.20;;;;;;4955539;28;20588;-56
2023/05/14 00:22:32;;;;;;;1.80;1.70;;;19.70;64.10;;;;;;4956008;28;20041;-55
2023/05/14 00:24:57;;;;;;;1.83;1.52;;;19.70;64.10;;;;;;4960266;28;20114;-53
2023/05/14 00:27:23;;;;;;;1.75;1.65;;;19.70;64.20;;;;;;4952545;28;20115;-57
2023/05/14 00:29:48;;;;;;;1.70;1.60;;;19.70;64.20;;;;;;4954974;28;20066;-54
2023/05/14 00:32:14;;;;;;;1.80;1.70;;;19.70;64.20;;;;;;4952846;28;20031;-57
2023/05/14 00:34:40;;;;;;;1.50;1.40;;;19.70;64.20;;;;;;4957294;28;20047;-52
2023/05/14 00:37:05;;;;;;;2.15;1.75;;;19.70;64.10;;;;;;4956295;28;20443;-52
2023/05/14 00:39:31;;;;;;;1.73;1.63;;;19.70;64.10;;;;;;4956182;28;20034;-55
2023/05/14 00:41:56;;;;;;;2.08;1.88;;;19.70;64.80;;;;;;4955510;28;20027;-58
2023/05/14 00:44:22;;;;;;;1.80;1.70;;;19.70;64.20;;;;;;4955653;28;20066;-51
2023/05/14 00:46:47;;;;;;;1.75;1.60;;;19.60;64.10;;;;;;4952259;28;20838;-49
2023/05/14 00:49:14;;;;;;;1.60;1.50;;;19.60;64.20;;;;;;4954894;28;20042;-53
2023/05/14 00:51:40;;;;;;;2.03;1.83;;;19.60;64.10;;;;;;4954781;28;20146;-52
2023/05/14 00:54:06;;;;;;;1.77;1.67;;;19.70;64.10;;;;;;4956685;28;20601;-56
2023/05/14 00:56:32;;;;;;;2.08;1.98;;;19.60;64.10;;;;;;4957010;28;20031;-57
2023/05/14 00:58:58;;;;;;;2.10;1.90;;;19.70;64.20;;;;;;4954587;28;20039;-55
2023/05/14 01:01:24;;;;;;;2.00;1.80;;;19.60;64.10;;;;;;4956125;28;20089;-55
2023/05/14 01:03:52;;;;;;;2.22;1.73;;;19.60;64.10;;;;;;4956658;28;20030;-53
2023/05/14 01:06:27;;;;;;;1.90;1.73;;;19.60;64.20;;;;;;4953818;28;20035;-59
2023/05/14 01:09:11;;;;;;;1.95;1.80;;;19.60;64.10;;;;;;4954615;28;20443;-53
2023/05/14 01:11:46;;;;;;;2.20;1.80;;;19.60;64.00;;;;;;4952446;28;20126;-53
2023/05/14 01:14:20;;;;;;;2.73;2.00;;;19.70;64.20;;;;;;4950900;28;20122;-54
2023/05/14 01:16:48;;;;;;;2.05;1.85;;;19.60;64.10;;;;;;4954347;28;20035;-58
2023/05/14 01:19:27;;;;;;;2.75;1.85;;;19.60;64.10;;;;;;4956325;28;20122;-58
2023/05/14 01:21:53;;;;;;;1.90;1.73;;;19.60;64.10;;;;;;4957616;28;20069;-52
2023/05/14 01:24:18;;;;;;;3.05;2.00;;;19.60;64.10;;;;;;4957854;28;20503;-55
2023/05/14 01:26:44;;;;;;;1.85;1.73;;;19.60;64.10;;;;;;4959294;28;20035;-54
2023/05/14 01:29:20;;;;;;;1.95;1.80;;;19.60;64.10;;;;;;4953278;28;20039;-56
2023/05/14 01:31:48;;;;;;;1.92;1.83;;;19.60;64.20;;;;;;4958395;28;20053;-56
2023/05/14 01:34:18;;;;;;;1.92;1.73;;;19.60;64.10;;;;;;4960265;28;20027;-56
2023/05/14 01:36:44;;;;;;;2.30;1.70;;;19.60;64.20;;;;;;4960117;28;20456;-59
2023/05/14 01:39:12;;;;;;;2.33;2.13;;;19.60;64.20;;;;;;4957235;28;20035;-59
2023/05/14 01:41:41;;;;;;;3.05;1.80;;;19.60;64.80;;;;;;4958739;28;20437;-56
2023/05/14 01:44:08;;;;;;;2.58;2.33;;;19.60;64.10;;;;;;4953808;28;20031;-58
2023/05/14 01:46:33;;;;;;;1.60;1.50;;;19.60;64.20;;;;;;4954475;28;20043;-55
2023/05/14 01:48:59;;;;;;;2.45;1.95;;;19.60;64.20;;;;;;4959518;28;20523;-54
2023/05/14 01:51:25;;;;;;;1.90;1.80;;;19.60;64.20;;;;;;4960499;28;20633;-59
2023/05/14 01:53:51;;;;;;;2.10;1.88;;;19.60;64.20;;;;;;4961872;28;20030;-59
2023/05/14 01:56:18;;;;;;;2.38;1.92;;;19.60;64.20;;;;;;4959247;28;20039;-53
2023/05/14 01:58:43;;;;;;;2.00;1.80;;;19.60;64.10;;;;;;4963756;28;20415;-57
2023/05/14 02:01:09;;;;;;;2.05;1.85;;;19.60;64.20;;;;;;4958412;28;20042;-57
2023/05/14 02:03:35;;;;;;;1.73;1.63;;;19.60;64.20;;;;;;4955878;28;20034;-56
2023/05/14 02:06:00;;;;;;;1.70;1.60;;;19.50;64.20;;;;;;4958481;28;20850;-53
2023/05/14 02:08:26;;;;;;;1.83;1.70;;;19.50;64.10;;;;;;4956999;28;20043;-54
2023/05/14 02:10:51;;;;;;;3.00;2.40;;;19.60;64.20;;;;;;4956896;28;20039;-55
2023/05/14 02:13:18;;;;;;;2.00;1.90;;;19.50;64.10;;;;;;4967773;28;20039;-56
2023/05/14 02:15:44;;;;;;;1.75;1.65;;;19.60;64.20;;;;;;4957826;28;20038;-56
2023/05/14 02:18:09;;;;;;;1.73;1.60;;;19.50;64.10;;;;;;4958377;28;20038;-57
2023/05/14 02:20:35;;;;;;;2.00;1.80;;;19.50;64.70;;;;;;4958126;28;20061;-55
2023/05/14 02:23:00;;;;;;;2.10;1.90;;;19.50;64.10;;;;;;4963888;28;20041;-52
2023/05/14 02:25:26;;;;;;;1.90;1.80;;;19.50;64.10;;;;;;4956833;28;20089;-56
2023/05/14 02:27:51;;;;;;;2.13;1.92;;;19.50;64.10;;;;;;4956787;28;20377;-50
2023/05/14 02:30:17;;;;;;;1.92;1.73;;;19.50;64.00;;;;;;4956366;28;20035;-54
2023/05/14 02:32:42;;;;;;;1.85;1.75;;;19.50;64.10;;;;;;4956204;28;20023;-53
2023/05/14 02:35:08;;;;;;;2.10;1.95;;;19.60;64.10;;;;;;4956729;28;20038;-58
2023/05/14 02:37:34;;;;;;;2.45;2.25;;;19.50;64.00;;;;;;4972318;28;20027;-58
2023/05/14 02:39:59;;;;;;;2.72;1.92;;;19.50;64.10;;;;;;4955310;28;20030;-50
2023/05/14 02:42:25;;;;;;;1.60;1.50;;;19.50;64.00;;;;;;4956125;28;20027;-49
2023/05/14 02:44:51;;;;;;;2.10;1.90;;;19.50;64.10;;;;;;4955429;28;20046;-50
2023/05/14 02:47:17;;;;;;;1.77;1.67;;;19.60;64.20;;;;;;4960519;28;20042;-52
2023/05/14 02:49:43;;;;;;;1.92;1.83;;;19.50;64.10;;;;;;4958467;28;20035;-53
2023/05/14 02:52:08;;;;;;;2.50;2.05;;;19.50;64.10;;;;;;4952753;28;20031;-57
2023/05/14 02:54:34;;;;;;;2.00;1.77;;;19.50;64.20;;;;;;4955374;28;20031;-50
2023/05/14 02:56:59;;;;;;;1.88;1.75;;;19.50;64.10;;;;;;4954491;28;20706;-50
2023/05/14 02:59:26;;;;;;;2.08;1.77;;;19.50;64.00;;;;;;4959563;28;20129;-56
2023/05/14 03:01:52;;;;;;;1.92;1.83;;;19.50;64.10;;;;;;4956688;28;20039;-51
2023/05/14 03:04:17;;;;;;;2.33;1.85;;;19.50;64.10;;;;;;4956319;28;20758;-52
2023/05/14 03:06:43;;;;;;;1.50;1.40;;;19.50;64.10;;;;;;4956541;28;20073;-58
2023/05/14 03:09:08;;;;;;;1.92;1.83;;;19.50;64.10;;;;;;4955790;28;20030;-52
2023/05/14 03:11:34;;;;;;;2.70;1.88;;;19.50;64.10;;;;;;4951713;28;20093;-50
2023/05/14 03:14:00;;;;;;;1.98;1.75;;;19.50;64.10;;;;;;4952231;28;20039;-51
2023/05/14 03:16:26;;;;;;;2.35;2.15;;;19.50;64.10;;;;;;4957093;28;20504;-58
2023/05/14 03:18:51;;;;;;;3.55;1.90;;;19.50;64.10;;;;;;4959889;28;20123;-57
2023/05/14 03:21:17;;;;;;;1.85;1.70;;;19.50;64.10;;;;;;4956649;28;21036;-53
2023/05/14 03:23:42;;;;;;;2.10;1.90;;;19.50;64.10;;;;;;4956611;28;20333;-52
2023/05/14 03:26:08;;;;;;;2.25;2.05;;;19.50;64.20;;;;;;4952527;28;20512;-53
2023/05/14 03:28:33;;;;;;;2.35;1.90;;;19.50;64.10;;;;;;4955324;28;20031;-58
2023/05/14 03:30:59;;;;;;;1.90;1.80;;;19.50;64.20;;;;;;4954813;28;20352;-51
2023/05/14 03:33:25;;;;;;;2.28;2.10;;;19.50;64.10;;;;;;4957570;28;20043;-53
2023/05/14 03:35:51;;;;;;;2.17;1.98;;;19.50;64.20;;;;;;4954272;28;20031;-56
2023/05/14 03:38:16;;;;;;;2.88;2.47;;;19.50;64.20;;;;;;4954877;28;20030;-56
2023/05/14 03:40:43;;;;;;;2.08;1.98;;;19.50;64.10;;;;;;4950738;28;20047;-58
2023/05/14 03:43:09;;;;;;;2.00;1.90;;;19.50;64.10;;;;;;4955785;28;20050;-57
2023/05/14 03:45:34;;;;;;;2.13;1.80;;;19.50;64.10;;;;;;4956777;28;20125;-57
2023/05/14 03:48:00;;;;;;;1.63;1.52;;;19.50;64.10;;;;;;4959495;28;20377;-53
2023/05/14 03:50:25;;;;;;;3.05;1.77;;;19.50;64.10;;;;;;4956142;28;20320;-51
2023/05/14 03:52:51;;;;;;;2.30;2.10;;;19.40;64.10;;;;;;4951356;28;20733;-53
2023/05/14 03:55:18;;;;;;;2.30;2.10;;;19.50;64.10;;;;;;4954440;28;20038;-55
2023/05/14 03:57:44;;;;;;;2.40;2.20;;;19.50;64.00;;;;;;4953964;28;20114;-57
2023/05/14 04:00:10;;;;;;;1.98;1.88;;;19.50;64.10;;;;;;4953509;28;20122;-52
2023/05/14 04:02:36;;;;;;;2.00;1.80;;;19.40;64.00;;;;;;4953645;28;20042;-56
2023/05/14 04:05:01;;;;;;;3.22;2.30;;;19.50;64.10;;;;;;4934182;28;20496;-52
2023/05/14 04:07:27;;;;;;;2.53;1.85;;;19.50;64.00;;;;;;4954033;28;20091;-59
2023/05/14 04:09:52;;;;;;;2.17;1.98;;;19.50;64.00;;;;;;4956362;28;20022;-58
2023/05/14 04:12:18;;;;;;;2.22;2.05;;;19.50;64.10;;;;;;4953677;28;20039;-55
2023/05/14 04:14:43;;;;;;;2.17;2.03;;;19.50;64.00;;;;;;4955917;28;20374;-54
2023/05/14 04:17:09;;;;;;;2.40;2.03;;;19.50;64.00;;;;;;4957942;28;20125;-57
2023/05/14 04:19:34;;;;;;;3.08;2.00;;;19.50;64.00;;;;;;4956671;28;20500;-53
2023/05/14 04:22:00;;;;;;;2.17;2.00;;;19.50;64.00;;;;;;4951232;28;20062;-51
2023/05/14 04:24:25;;;;;;;2.10;1.90;;;19.50;63.90;;;;;;4956431;28;20125;-58
2023/05/14 04:26:51;;;;;;;2.25;2.05;;;19.50;63.80;;;;;;4954681;28;20046;-48
2023/05/14 04:29:16;;;;;;;2.03;1.92;;;19.50;63.80;;;;;;4952322;28;20185;-49
2023/05/14 04:31:42;;;;;;;2.35;2.00;;;19.50;63.70;;;;;;4954996;28;20035;-53
2023/05/14 04:34:07;;;;;;;2.20;2.00;;;19.60;63.80;;;;;;4956889;28;20031;-55
2023/05/14 04:36:33;;;;;;;1.70;1.60;;;19.60;63.70;;;;;;4953557;28;20039;-50
2023/05/14 04:38:58;;;;;;;2.10;1.95;;;19.60;63.70;;;;;;4959112;28;20381;-54
2023/05/14 04:41:24;;;;;;;2.20;2.00;;;19.60;63.70;;;;;;4950945;28;20042;-55
2023/05/14 04:43:49;;;;;;;1.77;1.67;;;19.60;63.70;;;;;;4960530;28;20027;-54
2023/05/14 04:46:15;;;;;;;2.30;2.10;;;19.60;63.70;;;;;;4955065;28;20043;-55
2023/05/14 04:48:41;;;;;;;2.20;2.00;;;19.60;63.80;;;;;;4956432;28;20396;-52
2023/05/14 04:51:06;;;;;;;2.35;2.00;;;19.70;63.90;;;;;;4952843;28;20062;-54
2023/05/14 04:53:32;;;;;;;2.42;2.17;;;19.70;63.70;;;;;;4958589;28;20451;-53
2023/05/14 04:55:57;;;;;;;1.98;1.88;;;19.70;63.70;;;;;;4953467;28;20086;-56
2023/05/14 04:58:23;;;;;;;2.28;2.08;;;19.70;63.70;;;;;;4955732;28;20023;-56
2023/05/14 05:00:49;;;;;;;2.30;2.10;;;19.70;63.70;;;;;;4949090;28;20555;-55
2023/05/14 05:03:14;;;;;;;2.30;2.10;;;19.70;63.80;;;;;;4952982;28;20032;-55
2023/05/14 05:05:40;;;;;;;1.80;1.70;;;19.70;63.90;;;;;;4956365;28;20035;-50
2023/05/14 05:08:05;;;;;;;2.03;1.92;;;19.70;63.90;;;;;;4955145;28;20637;-53
2023/05/14 05:10:31;;;;;;;2.17;1.98;;;19.70;63.70;;;;;;4952197;28;20031;-53
2023/05/14 05:12:56;;;;;;;2.35;1.95;;;19.80;63.90;;;;;;4962289;28;20026;-52
2023/05/14 05:15:22;;;;;;;2.10;1.98;;;19.70;63.80;;;;;;4959358;28;20027;-56
2023/05/14 05:17:47;;;;;;;2.15;1.92;;;19.80;63.90;;;;;;4960613;28;22860;-54
2023/05/14 05:20:13;;;;;;;1.90;1.80;;;19.80;63.80;;;;;;4962441;28;20673;-55
2023/05/14 05:22:38;;;;;;;2.38;2.17;;;19.80;63.80;;;;;;4957752;28;20026;-53
2023/05/14 05:25:05;;;;;;;2.28;2.08;;;19.80;63.70;;;;;;4959319;28;20034;-50
2023/05/14 05:27:32;;;;;;;1.90;1.80;;;19.80;63.80;;;;;;4958551;28;20043;-54
2023/05/14 05:29:57;;;;;;;2.17;1.98;;;19.80;63.80;;;;;;4957109;28;20035;-53
2023/05/14 05:32:23;;;;;;;2.45;2.25;;;19.80;63.80;;;;;;4955831;28;20444;-53
2023/05/14 05:34:50;;;;;;;2.28;2.08;;;19.80;63.60;;;;;;4958522;28;20043;-53
2023/05/14 05:37:16;;;;;;;1.63;1.52;;;19.80;63.80;;;;;;4955455;28;20028;-55
2023/05/14 05:39:41;;;;;;;2.88;2.30;;;19.80;63.70;;;;;;4957987;28;20552;-56
2023/05/14 05:42:07;;;;;;;2.35;2.05;;;19.80;63.70;;;;;;4962580;28;20031;-54
2023/05/14 05:44:33;;;;;;;1.98;1.88;;;19.90;63.80;;;;;;4957537;28;20040;-54
2023/05/14 05:46:58;;;;;;;1.67;1.58;;;19.80;63.80;;;;;;4956519;28;20578;-55
2023/05/14 05:49:24;;;;;;;2.95;1.92;;;19.80;63.80;;;;;;4954341;28;20035;-55
2023/05/14 05:51:49;;;;;;;1.90;1.80;;;19.80;63.90;;;;;;4954499;28;20039;-53
2023/05/14 05:54:15;;;;;;;1.85;1.75;;;19.90;63.70;;;;;;4958307;28;20031;-53
2023/05/14 05:56:40;;;;;;;2.15;1.95;;;19.90;63.80;;;;;;4956837;28;20382;-53
2023/05/14 05:59:06;;;;;;;2.55;2.20;;;19.90;63.70;;;;;;4954447;28;20222;-53
2023/05/14 06:01:31;;;;;;;2.60;2.40;;;19.90;63.80;;;;;;4955392;28;20109;-51
2023/05/14 06:03:57;;;;;;;1.95;1.77;;;19.90;63.80;;;;;;4955240;28;20528;-51
2023/05/14 06:06:22;;;;;;;1.85;1.75;;;19.90;63.70;;;;;;4957794;28;20031;-55
2023/05/14 06:08:48;;;;;;;2.00;1.80;;;19.90;63.80;;;;;;4955224;28;20065;-52
2023/05/14 06:11:14;;;;;;;2.25;1.98;;;19.90;63.90;;;;;;4958855;28;20027;-50
2023/05/14 06:13:39;;;;;;;2.22;2.03;;;19.90;63.80;;;;;;4955827;28;20110;-53
2023/05/14 06:16:05;;;;;;;1.88;1.77;;;19.90;64.00;;;;;;4959933;28;20452;-53
2023/05/14 06:18:30;;;;;;;2.10;1.90;;;19.90;63.80;;;;;;4954870;28;20453;-54
2023/05/14 06:20:58;;;;;;;2.00;1.60;;;19.90;63.80;;;;;;4957202;28;20051;-55
2023/05/14 06:23:25;;;;;;;1.90;1.75;;;19.90;63.90;;;;;;4955380;28;20541;-55
2023/05/14 06:25:50;;;;;;;1.90;1.80;;;19.90;63.90;;;;;;4955163;28;20800;-54
2023/05/14 06:28:16;;;;;;;2.00;1.90;;;19.90;64.00;;;;;;4954666;28;20038;-55
2023/05/14 06:30:41;;;;;;;2.08;1.92;;;19.90;63.80;;;;;;4952835;28;20411;-52
2023/05/14 06:33:07;;;;;;;2.95;2.15;;;19.90;63.90;;;;;;4956848;28;20027;-56
2023/05/14 06:35:33;;;;;;;1.88;1.67;;;19.90;64.00;;;;;;4960849;28;20027;-53
2023/05/14 06:37:59;;;;;;;2.38;1.85;;;19.90;64.00;;;;;;4951447;28;20109;-62
2023/05/14 06:40:24;;;;;;;2.30;2.10;;;19.90;64.10;;;;;;4964448;28;20491;-54
2023/05/14 06:42:50;;;;;;;2.70;2.25;;;19.90;64.10;;;;;;4957051;28;20780;-51
2023/05/14 06:45:15;;;;;;;2.42;2.22;;;19.90;64.10;;;;;;4958994;28;20037;-55
2023/05/14 06:47:41;;;;;;;2.30;2.10;;;19.90;63.90;;;;;;4957603;28;20595;-56
2023/05/14 06:50:07;;;;;;;2.10;1.95;;;19.90;64.10;;;;;;4954781;28;20050;-56
2023/05/14 06:52:32;;;;;;;2.03;1.83;;;19.90;64.10;;;;;;4953272;28;20035;-54
2023/05/14 06:54:58;;;;;;;1.80;1.70;;;19.90;63.90;;;;;;4954877;28;20046;-56
2023/05/14 06:57:23;;;;;;;3.17;1.92;;;19.90;63.90;;;;;;4953640;28;20050;-54
2023/05/14 06:59:49;;;;;;;2.28;2.10;;;19.90;63.80;;;;;;4959105;28;20058;-56
2023/05/14 07:02:15;;;;;;;1.95;1.85;;;19.90;64.10;;;;;;4955014;28;20030;-55
2023/05/14 07:04:40;;;;;;;3.28;2.13;;;19.90;63.80;;;;;;4953037;28;20027;-55
2023/05/14 07:07:06;;;;;;;5.30;2.10;;;19.90;64.10;;;;;;4951795;28;20059;-54
2023/05/14 07:09:32;;;;;;;2.40;1.98;;;19.90;63.80;;;;;;4951272;28;20050;-56
2023/05/14 07:11:57;;;;;;;3.15;2.55;;;19.90;63.90;;;;;;4959328;28;20602;-54
2023/05/14 07:14:23;;;;;;;4.13;2.45;;;19.90;63.90;;;;;;4954647;28;20027;-55
2023/05/14 07:16:48;;;;;;;2.60;2.40;;;19.90;64.00;;;;;;4958225;28;20121;-56
2023/05/14 07:19:14;;;;;;;3.13;2.83;;;19.90;64.10;;;;;;4962777;23;20031;-60
2023/05/14 07:21:39;;;;;;;3.90;2.45;;;19.90;64.10;;;;;;4999509;28;20109;-54
2023/05/14 07:24:05;;;;;;;3.95;2.65;;;19.90;64.20;;;;;;4989297;28;20053;-52
2023/05/14 07:26:31;;;;;;;2.50;2.30;;;19.90;64.20;;;;;;4981304;28;20392;-56
2023/05/14 07:28:56;;;;;;;4.28;2.70;;;19.90;64.30;;;;;;4981400;28;20037;-54
2023/05/14 07:31:22;;;;;;;2.95;2.40;;;19.90;64.20;;;;;;4980559;28;20082;-55
2023/05/14 07:33:47;;;;;;;3.97;2.67;;;19.90;64.10;;;;;;4980001;28;20050;-56
2023/05/14 07:36:13;;;;;;;3.20;2.33;;;19.90;64.10;;;;;;4982145;28;20288;-56
2023/05/14 07:38:38;;;;;;;6.28;2.95;;;19.90;64.10;;;;;;4979718;28;20118;-56
2023/05/14 07:41:04;;;;;;;2.92;2.67;;;19.80;64.20;;;;;;4980591;28;20030;-55
2023/05/14 07:43:30;;;;;;;3.58;2.67;;;19.80;64.20;;;;;;4979835;28;20037;-54
2023/05/14 07:45:55;;;;;;;2.95;2.65;;;19.90;64.20;;;;;;4976922;28;20045;-55
2023/05/14 07:48:21;;;;;;;6.07;3.30;;;19.80;64.10;;;;;;4973509;28;20035;-55
2023/05/14 07:50:48;;;;;;;4.13;2.80;;;19.90;64.10;;;;;;4991330;28;20105;-52
2023/05/14 07:53:13;;;;;;;3.55;2.72;;;19.90;64.20;;;;;;4977899;28;20026;-55
2023/05/14 07:55:41;;;;;;;3.50;3.10;;;19.90;64.40;;;;;;4977949;28;20695;-56
2023/05/14 07:58:06;;;;;;;4.97;2.90;;;19.90;64.50;;;;;;4976795;28;20069;-52
2023/05/14 08:00:32;;;;;;;3.22;2.92;;;19.80;64.20;;;;;;4979367;28;20750;-54
2023/05/14 08:02:57;;;;;;;3.22;2.78;;;19.90;64.30;;;;;;4980656;28;20165;-54
2023/05/14 08:05:23;;;;;;;3.40;2.92;;;19.80;64.30;;;;;;4980816;28;20030;-54
2023/05/14 08:07:48;;;;;;;3.28;3.05;;;19.80;64.30;;;;;;4979318;28;20516;-55
2023/05/14 08:10:14;;;;;;;3.05;2.75;;;19.80;64.40;;;;;;4978299;28;20034;-53
2023/05/14 08:12:41;;;;;;;4.20;3.15;;;19.80;64.40;;;;;;4978805;28;20117;-55
2023/05/14 08:15:07;;;;;;;3.83;3.13;;;19.80;64.10;;;;;;4980870;28;20643;-55
2023/05/14 08:17:32;;;;;;;5.47;3.10;;;19.80;64.30;;;;;;4978491;28;20038;-53
2023/05/14 08:19:58;;;;;;;3.25;2.92;;;19.80;64.30;;;;;;4978942;28;20125;-54
2023/05/14 08:22:24;;;;;;;3.70;3.30;;;19.80;64.30;;;;;;4979994;28;20037;-55
2023/05/14 08:24:49;;;;;;;3.22;2.65;;;19.80;64.30;;;;;;4977854;28;20034;-53
2023/05/14 08:27:15;;;;;;;9.35;3.38;;;19.90;64.20;;;;;;4979547;28;20089;-53
2023/05/14 08:29:41;;;;;;;3.00;2.80;;;19.80;64.10;;;;;;4980827;28;20048;-55
2023/05/14 08:32:07;;;;;;;5.55;3.55;;;19.80;64.30;;;;;;4982928;28;20035;-55
2023/05/14 08:34:32;;;;;;;3.70;2.90;;;19.90;64.50;;;;;;4981851;28;20408;-55
2023/05/14 08:36:58;;;;;;;4.20;3.25;;;19.80;64.30;;;;;;4982919;28;20039;-53
2023/05/14 08:39:24;;;;;;;3.17;2.85;;;19.90;64.10;;;;;;4982458;28;20097;-54
2023/05/14 08:41:50;;;;;;;3.03;2.72;;;19.80;64.20;;;;;;4982356;28;20034;-54
2023/05/14 08:44:18;;;;;;;3.20;2.90;;;19.90;64.40;;;;;;4982796;28;20146;-54
2023/05/14 08:46:44;;;;;;;3.42;3.00;;;19.80;64.20;;;;;;4981075;28;20507;-55
2023/05/14 08:49:19;;;;;;;3.30;3.00;;;19.80;64.10;;;;;;4981781;28;20057;-54
2023/05/14 08:51:48;;;;;;;3.47;3.17;;;19.80;64.20;;;;;;4979657;28;20772;-54
2023/05/14 08:54:16;;;;;;;5.80;3.13;;;19.80;64.30;;;;;;4976933;28;20480;-54
2023/05/14 08:56:45;;;;;;;3.03;2.83;;;19.80;64.10;;;;;;4982172;28;20491;-53
2023/05/14 08:59:11;;;;;;;3.85;3.55;;;19.80;64.20;;;;;;4976185;28;20457;-57
2023/05/14 09:01:41;;;;;;;3.38;2.95;;;19.80;64.10;;;;;;4990004;28;20109;-53
2023/05/14 09:04:08;;;;;;;4.50;2.85;;;19.80;64.20;;;;;;4982609;28;20058;-54
2023/05/14 09:06:36;;;;;;;3.53;2.95;;;19.90;64.20;;;;;;4988072;28;20042;-55
2023/05/14 09:09:02;;;;;;;3.80;3.05;;;19.80;64.30;;;;;;4992306;28;20081;-53
2023/05/14 09:11:28;;;;;;;3.58;3.17;;;19.80;64.30;;;;;;4981860;28;20034;-55
2023/05/14 09:13:53;;;;;;;3.65;3.17;;;19.80;64.20;;;;;;4981095;28;20093;-54
2023/05/14 09:16:19;;;;;;;4.15;3.35;;;19.80;64.10;;;;;;4987260;28;20499;-55
2023/05/14 09:18:46;;;;;;;3.08;2.78;;;19.80;64.20;;;;;;4982227;28;20062;-57
2023/05/14 09:21:15;;;;;;;4.40;3.05;;;19.80;64.10;;;;;;4982019;28;20046;-56
2023/05/14 09:23:44;;;;;;;3.53;3.17;;;19.80;64.20;;;;;;4982401;28;20755;-54
2023/05/14 09:26:10;;;;;;;3.45;3.15;;;19.90;64.20;;;;;;4980359;28;20502;-55
2023/05/14 09:28:40;;;;;;;3.78;3.20;;;19.80;64.10;;;;;;4990302;28;20109;-57
2023/05/14 09:31:08;;;;;;;5.30;3.33;;;19.80;64.20;;;;;;4983197;28;20038;-54
2023/05/14 09:33:33;;;;;;;5.05;3.25;;;19.80;64.20;;;;;;4983660;28;20039;-51
2023/05/14 09:36:00;;;;;;;3.00;2.55;;;19.80;64.40;;;;;;4977369;28;20073;-55
2023/05/14 09:38:32;;;;;;;3.63;3.33;;;19.80;64.30;;;;;;4982639;28;20050;-54
2023/05/14 09:40:58;;;;;;;3.05;2.83;;;19.80;64.20;;;;;;4977755;28;20038;-55
2023/05/14 09:43:24;;;;;;;3.90;3.28;;;19.80;64.70;;;;;;4981767;28;20035;-54
2023/05/14 09:45:50;;;;;;;3.40;2.95;;;19.80;64.20;;;;;;4982395;28;20030;-54
2023/05/14 09:48:16;;;;;;;5.28;3.47;;;19.80;64.10;;;;;;4982635;28;20042;-52
2023/05/14 09:50:45;;;;;;;3.42;3.05;;;19.80;64.10;;;;;;4981582;28;20027;-59
2023/05/14 09:53:12;;;;;;;2.80;2.60;;;19.80;64.00;;;;;;4985765;28;20266;-53
2023/05/14 09:55:38;;;;;;;3.45;3.15;;;19.80;64.00;;;;;;4985558;28;20049;-55
2023/05/14 09:58:04;;;;;;;3.58;3.05;;;19.80;64.20;;;;;;4986260;28;20030;-52
2023/05/14 10:00:32;;;;;;;3.85;3.42;;;19.80;64.10;;;;;;4984877;28;20085;-53
2023/05/14 10:03:01;;;;;;;3.42;3.05;;;19.80;64.00;;;;;;4986019;28;20318;-52
2023/05/14 10:05:28;;;;;;;4.35;3.58;;;19.80;64.10;;;;;;4985872;28;20181;-52
2023/05/14 10:07:58;;;;;;;5.07;2.92;;;19.80;64.10;;;;;;4984560;28;20117;-58
2023/05/14 10:10:26;;;;;;;3.75;2.80;;;19.80;64.10;;;;;;4991928;28;20023;-54
2023/05/14 10:13:03;;;;;;;3.08;2.88;;;19.80;64.10;;;;;;4985080;28;20157;-51
2023/05/14 10:15:53;;;;;;;4.00;3.70;;;19.80;64.10;;;;;;4985581;28;20030;-54
2023/05/14 10:18:22;;;;;;;3.45;3.15;;;19.80;64.10;;;;;;4976051;28;20027;-56
2023/05/14 10:20:59;;;;;;;4.30;2.75;;;19.80;64.10;;;;;;4985653;28;20368;-52
2023/05/14 10:23:25;;;;;;;3.65;2.90;;;19.80;64.00;;;;;;4986467;28;20034;-55
2023/05/14 10:25:51;;;;;;;3.40;3.10;;;19.90;64.10;;;;;;4987317;28;20026;-53
2023/05/14 10:28:17;;;;;;;3.13;2.83;;;19.90;64.10;;;;;;4991512;28;20030;-53
2023/05/14 10:30:45;;;;;;;3.70;3.40;;;19.80;64.00;;;;;;4985887;28;20039;-57
2023/05/14 10:33:14;;;;;;;4.03;3.70;;;19.80;64.00;;;;;;4986591;28;20030;-55
2023/05/14 10:35:58;;;;;;;3.65;3.13;;;19.80;63.90;;;;;;4986094;28;20034;-54
2023/05/14 10:38:32;;;;;;;3.65;3.13;;;19.80;64.00;;;;;;4985838;28;20252;-56
2023/05/14 10:41:03;;;;;;;3.63;3.33;;;19.80;63.90;;;;;;4984205;28;20423;-56
2023/05/14 10:43:34;;;;;;;3.33;3.03;;;19.90;64.30;;;;;;4986153;28;20449;-52
2023/05/14 10:46:00;;;;;;;3.90;3.05;;;19.80;64.00;;;;;;4985274;28;20023;-55
2023/05/14 10:48:26;;;;;;;3.97;3.67;;;19.80;64.00;;;;;;4984083;28;20030;-53
2023/05/14 10:50:52;;;;;;;3.92;3.30;;;19.80;64.00;;;;;;4984093;28;20046;-56
2023/05/14 10:53:18;;;;;;;3.60;3.30;;;19.80;64.00;;;;;;4985205;28;20381;-53
2023/05/14 10:55:44;;;;;;;3.47;3.17;;;19.80;64.00;;;;;;4984899;28;20039;-53
2023/05/14 10:58:10;;;;;;;3.28;3.03;;;19.90;63.90;;;;;;4985399;28;20030;-54
2023/05/14 11:00:37;;;;;;;3.30;3.00;;;19.90;64.10;;;;;;4984196;28;20623;-54
2023/05/14 11:03:04;;;;;;;4.38;3.70;;;19.80;64.10;;;;;;4990529;28;20551;-54
2023/05/14 11:05:31;;;;;;;3.97;3.63;;;19.80;63.90;;;;;;4983587;28;20701;-56
2023/05/14 11:07:57;;;;;;;3.83;3.53;;;19.90;64.10;;;;;;4985055;28;20040;-55
2023/05/14 11:10:30;;;;;;;3.92;3.53;;;19.80;64.10;;;;;;4984927;28;20492;-51
2023/05/14 11:12:57;;;;;;;4.03;3.17;;;19.80;64.00;;;;;;4983728;28;20057;-54
2023/05/14 11:15:24;;;;;;;4.03;3.72;;;19.80;64.30;;;;;;4985518;28;20022;-56
2023/05/14 11:17:51;;;;;;;4.00;3.60;;;19.80;64.10;;;;;;4988026;28;20026;-54
2023/05/14 11:20:18;;;;;;;3.70;3.40;;;19.80;64.10;;;;;;4984638;28;20073;-55
2023/05/14 11:22:45;;;;;;;3.70;3.40;;;19.80;64.20;;;;;;4987580;28;20026;-51
2023/05/14 11:25:13;;;;;;;3.50;3.20;;;19.80;64.00;;;;;;4982298;28;20161;-53
2023/05/14 11:27:39;;;;;;;4.68;3.75;;;19.90;64.30;;;;;;4983989;28;20045;-53
2023/05/14 11:30:11;;;;;;;3.95;3.65;;;19.80;64.20;;;;;;4983505;28;20068;-51
2023/05/14 11:32:36;;;;;;;4.55;4.15;;;19.90;64.10;;;;;;4981271;28;20540;-56
2023/05/14 11:35:02;;;;;;;3.58;3.28;;;19.80;64.10;;;;;;4983520;28;20132;-52
2023/05/14 11:37:29;;;;;;;3.75;3.45;;;19.90;64.20;;;;;;4983309;28;20035;-53
2023/05/14 11:39:58;;;;;;;3.92;3.63;;;19.80;64.00;;;;;;4991676;28;20121;-54
2023/05/14 11:42:24;;;;;;;4.28;3.97;;;19.80;64.00;;;;;;4984418;28;20490;-53
2023/05/14 11:44:50;;;;;;;3.67;3.35;;;19.90;64.10;;;;;;4986358;28;20037;-53
2023/05/14 11:47:18;;;;;;;4.15;3.10;;;19.80;64.10;;;;;;4982893;28;20030;-55
2023/05/14 11:49:45;;;;;;;3.88;3.47;;;19.80;64.00;;;;;;4981994;28;20038;-55
2023/05/14 11:52:15;;;;;;;5.57;4.47;;;19.80;64.10;;;;;;4986070;28;20039;-55
2023/05/14 11:54:42;;;;;;;3.30;3.10;;;19.80;64.10;;;;;;4982335;28;20061;-55
2023/05/14 11:57:13;;;;;;;4.53;4.10;;;19.80;64.20;;;;;;4981844;28;20621;-54
2023/05/14 11:59:39;;;;;;;3.60;3.30;;;19.80;64.00;;;;;;4983513;28;20042;-56
2023/05/14 12:02:08;;;;;;;4.32;3.85;;;19.80;64.00;;;;;;4982257;28;20038;-54
2023/05/14 12:04:34;;;;;;;4.18;3.80;;;19.80;64.00;;;;;;4982472;28;20151;-55
2023/05/14 12:07:10;;;;;;;3.78;3.47;;;19.80;64.10;;;;;;4982415;28;20129;-53
2023/05/14 12:09:49;;;;;;;4.10;3.70;;;19.80;64.20;;;;;;4982661;28;20038;-52
2023/05/14 12:12:18;;;;;;;4.13;3.83;;;19.80;64.10;;;;;;4979683;28;20042;-54
2023/05/14 12:14:44;;;;;;;4.13;3.65;;;19.80;64.10;;;;;;4981440;28;20041;-56
2023/05/14 12:17:15;;;;;;;4.95;3.85;;;19.80;64.20;;;;;;4985365;28;20035;-53
2023/05/14 12:19:41;;;;;;;4.30;4.00;;;19.80;64.10;;;;;;4981163;28;20042;-53
2023/05/14 12:22:08;;;;;;;4.70;3.80;;;19.80;64.20;;;;;;4983902;28;20057;-53
2023/05/14 12:24:34;;;;;;;6.25;3.90;;;19.80;64.20;;;;;;4982408;28;20182;-54
2023/05/14 12:27:01;;;;;;;4.43;4.03;;;19.80;64.20;;;;;;4981867;28;20527;-55
2023/05/14 12:29:26;;;;;;;4.10;3.60;;;19.80;64.20;;;;;;4984744;28;20240;-53
2023/05/14 12:31:52;;;;;;;4.15;3.75;;;19.80;64.30;;;;;;4982135;28;20034;-55
2023/05/14 12:34:18;;;;;;;4.10;3.70;;;19.80;64.30;;;;;;4983820;28;20038;-55
2023/05/14 12:36:43;;;;;;;4.50;4.05;;;19.80;64.30;;;;;;4982058;28;20049;-59
2023/05/14 12:39:11;;;;;;;5.22;3.80;;;19.80;64.20;;;;;;4983510;28;20034;-55
2023/05/14 12:41:36;;;;;;;5.65;3.95;;;19.80;64.30;;;;;;4983041;28;20038;-55
2023/05/14 12:44:03;;;;;;;3.95;3.55;;;19.80;64.30;;;;;;4982828;28;20034;-53